Time;durP1;ratioP1;P1;durP2;ratioP2;P2;SDS_P1;SDS_P2;PMS_P1;PMS_P2;Temp;Humidity;BMP_temperature;BMP_pressure;BME280_temperature;BME280_humidity;BME280_pressure;Samples;Min_cycle;Max_cycle;Signal;HPM_P1;HPM_P2
2020/12/26 00:00:45;;;;;;;1.70;0.20;;;3.00;99.90;;;;;;5016841;28;20214;-64
2020/12/26 00:03:10;;;;;;;1.70;0.20;;;3.00;99.90;;;;;;5017979;28;20198;-64
2020/12/26 00:05:38;;;;;;;1.70;0.20;;;3.00;99.90;;;;;;5014381;28;20186;-64
2020/12/26 00:08:03;;;;;;;1.70;0.20;;;3.00;99.90;;;;;;5017881;28;20223;-64
2020/12/26 00:10:29;;;;;;;1.70;0.20;;;3.00;99.90;;;;;;5017849;28;20206;-64
2020/12/26 00:12:54;;;;;;;1.80;0.53;;;3.00;99.90;;;;;;5017233;28;20193;-64
2020/12/26 00:15:20;;;;;;;1.70;0.20;;;3.00;99.90;;;;;;5024379;28;20179;-64
2020/12/26 00:17:45;;;;;;;2.13;1.23;;;3.10;99.90;;;;;;5016188;28;20222;-65
2020/12/26 00:20:11;;;;;;;1.70;0.20;;;3.10;99.90;;;;;;5021892;28;20221;-64
2020/12/26 00:22:37;;;;;;;1.70;0.20;;;3.00;99.90;;;;;;5015612;28;20214;-64
2020/12/26 00:25:03;;;;;;;3.03;1.40;;;2.90;99.90;;;;;;5015890;28;20256;-64
2020/12/26 00:27:28;;;;;;;2.10;0.73;;;2.90;99.90;;;;;;5016727;28;20297;-64
2020/12/26 00:29:54;;;;;;;2.07;0.50;;;2.80;99.90;;;;;;5021180;28;20281;-64
2020/12/26 00:32:23;;;;;;;1.70;0.20;;;2.80;99.90;;;;;;5015926;28;20274;-64
2020/12/26 00:34:48;;;;;;;2.30;1.20;;;2.80;99.90;;;;;;5018424;28;20193;-64
2020/12/26 00:37:18;;;;;;;2.00;0.93;;;2.80;99.90;;;;;;5016293;28;20186;-64
2020/12/26 00:39:43;;;;;;;1.70;0.20;;;2.60;99.90;;;;;;5012746;28;20289;-64
2020/12/26 00:42:09;;;;;;;1.70;0.20;;;2.70;99.90;;;;;;5019413;28;20225;-64
2020/12/26 00:44:35;;;;;;;1.67;0.20;;;2.70;99.90;;;;;;5018403;28;20194;-64
2020/12/26 00:47:00;;;;;;;1.70;0.20;;;2.70;99.90;;;;;;5015537;28;20330;-64
2020/12/26 00:49:25;;;;;;;5.03;3.80;;;2.70;99.90;;;;;;5021100;28;20206;-64
2020/12/26 00:51:51;;;;;;;1.70;0.20;;;2.70;99.90;;;;;;5014955;28;20658;-64
2020/12/26 00:54:16;;;;;;;1.70;0.20;;;2.70;99.90;;;;;;5014185;28;20187;-65
2020/12/26 00:56:42;;;;;;;3.33;2.00;;;2.70;99.90;;;;;;5018939;28;20310;-64
2020/12/26 00:59:07;;;;;;;2.80;1.40;;;2.70;99.90;;;;;;5014954;28;20189;-63
2020/12/26 01:01:33;;;;;;;1.70;0.20;;;2.60;99.90;;;;;;5015177;28;20654;-64
2020/12/26 01:03:58;;;;;;;7.83;2.63;;;2.70;99.90;;;;;;5020839;28;20192;-64
2020/12/26 01:06:24;;;;;;;1.70;0.20;;;2.70;99.90;;;;;;5012500;28;20202;-63
2020/12/26 01:08:50;;;;;;;1.80;0.30;;;2.70;99.90;;;;;;5022189;28;20187;-64
2020/12/26 01:11:15;;;;;;;1.70;0.20;;;2.70;99.90;;;;;;5014842;28;20206;-64
2020/12/26 01:13:40;;;;;;;1.70;0.20;;;2.80;99.90;;;;;;5011892;28;20178;-64
2020/12/26 01:16:10;;;;;;;1.70;0.20;;;2.80;99.90;;;;;;5019525;28;20265;-65
2020/12/26 01:18:35;;;;;;;9.43;8.90;;;2.80;99.90;;;;;;5015208;28;20194;-64
2020/12/26 01:21:04;;;;;;;1.80;0.20;;;2.70;99.90;;;;;;5012947;28;20297;-64
2020/12/26 01:23:30;;;;;;;1.98;0.50;;;2.80;99.90;;;;;;5003411;28;20194;-64
2020/12/26 01:25:56;;;;;;;2.05;0.73;;;2.80;99.90;;;;;;5013326;28;20191;-64
2020/12/26 01:28:21;;;;;;;2.23;0.73;;;2.80;99.90;;;;;;5019586;28;20592;-64
2020/12/26 01:30:47;;;;;;;1.70;0.20;;;2.70;99.90;;;;;;5015983;28;20202;-64
2020/12/26 01:33:12;;;;;;;1.70;0.30;;;2.70;99.90;;;;;;5014187;28;20724;-64
2020/12/26 01:35:38;;;;;;;1.77;0.30;;;2.70;99.90;;;;;;5015376;28;20190;-65
2020/12/26 01:38:03;;;;;;;1.77;0.30;;;2.80;99.90;;;;;;5018785;28;20193;-64
2020/12/26 01:40:29;;;;;;;1.80;0.30;;;2.80;99.90;;;;;;5014024;28;20221;-64
2020/12/26 01:42:54;;;;;;;1.70;0.20;;;2.90;99.90;;;;;;5019614;28;20195;-64
2020/12/26 01:45:20;;;;;;;2.60;1.60;;;2.90;99.90;;;;;;5019043;28;20589;-64
2020/12/26 01:47:47;;;;;;;5.50;1.83;;;2.90;99.90;;;;;;5015765;28;20214;-64
2020/12/26 01:50:12;;;;;;;1.80;0.20;;;2.90;99.90;;;;;;5015611;28;20206;-64
2020/12/26 01:52:38;;;;;;;2.20;1.27;;;2.90;99.90;;;;;;5015131;28;20672;-64
2020/12/26 01:55:03;;;;;;;9.00;4.03;;;2.90;99.90;;;;;;5013306;28;20621;-64
2020/12/26 01:57:33;;;;;;;3.83;1.67;;;2.90;99.90;;;;;;5013206;28;20199;-64
2020/12/26 02:00:00;;;;;;;3.95;2.25;;;2.80;99.90;;;;;;5012616;28;20206;-64
2020/12/26 02:02:25;;;;;;;1.70;0.20;;;2.70;99.90;;;;;;5016037;28;20182;-64
2020/12/26 02:04:51;;;;;;;4.00;2.20;;;2.70;99.90;;;;;;5022660;28;20182;-63
2020/12/26 02:07:16;;;;;;;9.40;6.63;;;2.70;99.90;;;;;;5013204;28;20218;-64
2020/12/26 02:09:42;;;;;;;5.30;3.10;;;2.70;99.90;;;;;;5013010;28;20210;-64
2020/12/26 02:12:07;;;;;;;2.13;0.83;;;2.60;99.90;;;;;;5019688;28;20187;-64
2020/12/26 02:14:33;;;;;;;2.00;0.50;;;2.60;99.90;;;;;;5012364;28;20187;-64
2020/12/26 02:16:58;;;;;;;2.20;1.43;;;2.60;99.90;;;;;;5019368;28;20706;-64
2020/12/26 02:19:25;;;;;;;4.67;2.10;;;2.60;99.90;;;;;;5017782;28;20230;-65
2020/12/26 02:21:51;;;;;;;2.70;1.05;;;2.60;99.90;;;;;;4993088;28;20197;-64
2020/12/26 02:24:17;;;;;;;2.00;0.60;;;2.60;99.90;;;;;;5009244;28;20756;-64
2020/12/26 02:26:43;;;;;;;6.50;3.83;;;2.70;99.90;;;;;;5017377;28;20439;-64
2020/12/26 02:29:09;;;;;;;1.80;0.30;;;2.70;99.90;;;;;;5010808;28;20438;-65
2020/12/26 02:31:35;;;;;;;1.80;0.40;;;2.80;99.90;;;;;;5014853;28;20487;-64
2020/12/26 02:34:02;;;;;;;1.73;0.30;;;2.90;99.90;;;;;;5013544;28;20538;-64
2020/12/26 02:36:30;;;;;;;1.70;0.20;;;2.80;99.90;;;;;;5012937;28;20187;-64
2020/12/26 02:38:55;;;;;;;5.10;1.67;;;2.90;99.90;;;;;;5014979;28;20214;-64
2020/12/26 02:41:21;;;;;;;2.00;0.73;;;2.80;99.90;;;;;;5013899;28;20609;-64
2020/12/26 02:43:46;;;;;;;7.83;4.90;;;2.80;99.90;;;;;;5013886;28;20250;-64
2020/12/26 02:46:12;;;;;;;3.27;1.20;;;2.80;99.90;;;;;;5019237;28;20253;-64
2020/12/26 02:48:37;;;;;;;1.70;0.20;;;2.80;99.90;;;;;;5013363;28;20530;-64
2020/12/26 02:51:03;;;;;;;1.70;0.20;;;2.90;99.90;;;;;;5013327;28;20233;-64
2020/12/26 02:53:29;;;;;;;1.80;0.50;;;2.90;99.90;;;;;;5013011;28;20284;-64
2020/12/26 02:55:54;;;;;;;1.70;0.20;;;3.00;99.90;;;;;;5012952;28;20190;-64
2020/12/26 02:58:21;;;;;;;1.97;0.40;;;3.00;99.90;;;;;;5021962;28;20190;-63
2020/12/26 03:00:48;;;;;;;1.73;0.30;;;2.90;99.90;;;;;;5012049;28;20264;-64
2020/12/26 03:03:13;;;;;;;1.70;0.20;;;2.90;99.90;;;;;;5011970;28;20190;-64
2020/12/26 03:05:39;;;;;;;1.70;0.20;;;2.80;99.90;;;;;;5009930;28;20242;-64
2020/12/26 03:08:05;;;;;;;1.70;0.20;;;2.80;99.90;;;;;;5012167;28;20226;-64
2020/12/26 03:10:30;;;;;;;7.43;2.43;;;2.80;99.90;;;;;;5011191;28;20485;-64
2020/12/26 03:12:56;;;;;;;5.17;3.10;;;2.80;99.90;;;;;;5016229;28;20183;-64
2020/12/26 03:15:21;;;;;;;1.70;0.20;;;2.80;99.90;;;;;;5012219;28;20182;-64
2020/12/26 03:17:47;;;;;;;1.70;0.20;;;2.80;99.90;;;;;;5011876;28;20182;-64
2020/12/26 03:20:13;;;;;;;1.70;0.20;;;3.00;99.90;;;;;;5007771;28;20593;-64
2020/12/26 03:22:38;;;;;;;2.20;0.87;;;3.10;99.90;;;;;;5011626;28;20183;-64
2020/12/26 03:25:04;;;;;;;5.23;3.20;;;3.10;99.90;;;;;;5010502;28;20181;-64
2020/12/26 03:27:30;;;;;;;1.73;0.20;;;3.10;99.90;;;;;;5015209;28;20195;-64
2020/12/26 03:29:55;;;;;;;1.90;0.70;;;3.10;99.90;;;;;;5011722;28;20213;-64
2020/12/26 03:32:21;;;;;;;1.70;0.20;;;3.10;99.90;;;;;;5016016;28;20381;-64
2020/12/26 03:34:48;;;;;;;4.35;1.63;;;3.10;99.90;;;;;;5012455;28;20190;-64
2020/12/26 03:37:13;;;;;;;5.03;4.50;;;3.20;99.90;;;;;;5011550;28;20221;-64
2020/12/26 03:39:39;;;;;;;1.70;0.20;;;3.10;99.90;;;;;;5014202;28;20243;-64
2020/12/26 03:42:05;;;;;;;1.70;0.20;;;3.10;99.90;;;;;;5011600;28;20190;-64
2020/12/26 03:44:31;;;;;;;7.72;4.10;;;3.10;99.90;;;;;;5011836;28;20195;-64
2020/12/26 03:46:57;;;;;;;7.47;3.57;;;3.10;99.90;;;;;;5016145;28;20213;-64
2020/12/26 03:49:23;;;;;;;1.70;0.20;;;3.00;99.90;;;;;;5014320;28;20453;-64
2020/12/26 03:51:49;;;;;;;3.70;1.40;;;3.00;99.90;;;;;;5017081;28;20183;-64
2020/12/26 03:54:16;;;;;;;1.70;0.20;;;3.00;99.90;;;;;;5021880;28;20524;-64
2020/12/26 03:56:42;;;;;;;1.75;0.30;;;3.00;99.90;;;;;;5012722;28;20214;-64
2020/12/26 03:59:08;;;;;;;11.02;4.78;;;3.10;99.90;;;;;;5013164;28;20214;-64
2020/12/26 04:01:33;;;;;;;1.70;0.20;;;3.10;99.90;;;;;;5017728;28;20673;-64
2020/12/26 04:03:59;;;;;;;3.83;3.07;;;3.10;99.90;;;;;;5012635;28;20553;-64
2020/12/26 04:06:24;;;;;;;1.80;0.50;;;3.10;99.90;;;;;;5010647;28;20605;-64
2020/12/26 04:08:49;;;;;;;3.37;2.27;;;3.00;99.90;;;;;;5012782;28;20187;-64
2020/12/26 04:11:15;;;;;;;2.10;1.07;;;3.00;99.90;;;;;;5010725;28;20591;-63
2020/12/26 04:13:41;;;;;;;4.13;0.80;;;3.00;99.90;;;;;;5014593;28;20193;-65
2020/12/26 04:16:10;;;;;;;1.70;0.20;;;3.00;99.90;;;;;;5016795;28;20281;-64
2020/12/26 04:18:35;;;;;;;9.18;3.55;;;2.90;99.90;;;;;;5011788;28;20240;-63
2020/12/26 04:21:01;;;;;;;2.93;0.50;;;2.80;99.90;;;;;;5015932;28;20285;-64
2020/12/26 04:23:26;;;;;;;5.03;3.43;;;2.80;99.90;;;;;;5018740;28;20679;-64
2020/12/26 04:25:52;;;;;;;1.77;0.30;;;2.80;99.90;;;;;;5014974;28;20186;-64
2020/12/26 04:28:17;;;;;;;1.70;0.20;;;2.80;99.90;;;;;;5004029;28;20653;-64
2020/12/26 04:30:43;;;;;;;1.80;0.20;;;2.90;99.90;;;;;;5017427;28;20206;-64
2020/12/26 04:33:08;;;;;;;6.23;4.00;;;3.00;99.90;;;;;;5015849;28;20191;-64
2020/12/26 04:35:34;;;;;;;1.70;0.20;;;3.00;99.90;;;;;;5016032;28;20643;-64
2020/12/26 04:37:59;;;;;;;4.37;2.60;;;3.10;99.90;;;;;;5036624;28;20182;-63
2020/12/26 04:40:26;;;;;;;1.70;0.20;;;3.10;99.90;;;;;;5040889;28;20213;-64
2020/12/26 04:42:52;;;;;;;2.10;0.82;;;3.10;99.90;;;;;;5039704;28;20258;-65
2020/12/26 04:45:18;;;;;;;3.38;1.27;;;3.10;99.90;;;;;;5033885;28;20199;-64
2020/12/26 04:47:53;;;;;;;2.10;0.53;;;3.10;99.90;;;;;;5033998;28;20206;-64
2020/12/26 04:50:27;;;;;;;5.53;2.10;;;3.10;99.90;;;;;;5041297;28;20460;-64
2020/12/26 04:52:58;;;;;;;2.75;0.70;;;3.10;99.90;;;;;;5033273;28;20182;-64
2020/12/26 04:55:30;;;;;;;4.65;1.02;;;3.10;99.90;;;;;;5040537;28;20240;-65
2020/12/26 04:58:08;;;;;;;2.75;1.00;;;3.00;99.90;;;;;;5046484;28;20201;-64
2020/12/26 05:00:34;;;;;;;1.75;0.20;;;3.00;99.90;;;;;;5034732;28;20210;-64
2020/12/26 05:03:09;;;;;;;1.73;0.20;;;3.00;99.90;;;;;;5037971;28;20189;-64
2020/12/26 05:05:41;;;;;;;1.73;0.20;;;3.00;99.90;;;;;;5030489;28;20178;-63
2020/12/26 05:08:11;;;;;;;3.78;1.85;;;3.00;99.90;;;;;;5035919;28;20202;-64
2020/12/26 05:10:38;;;;;;;1.77;0.20;;;3.00;99.90;;;;;;5037310;28;20199;-65
2020/12/26 05:13:05;;;;;;;1.73;0.25;;;3.00;99.90;;;;;;5036715;28;20179;-63
2020/12/26 05:15:31;;;;;;;4.18;2.83;;;3.00;99.90;;;;;;5034683;28;20187;-65
2020/12/26 05:17:57;;;;;;;2.75;0.75;;;3.00;99.90;;;;;;5035275;28;20182;-63
2020/12/26 05:20:24;;;;;;;2.10;0.70;;;3.00;99.90;;;;;;5037661;28;20249;-64
2020/12/26 05:23:13;;;;;;;1.70;0.20;;;3.10;99.90;;;;;;5029316;28;20285;-64
2020/12/26 05:25:49;;;;;;;1.75;0.32;;;3.10;99.90;;;;;;5020207;28;20183;-64
2020/12/26 05:28:20;;;;;;;1.70;0.30;;;3.10;99.90;;;;;;5023021;28;20349;-64
2020/12/26 05:30:51;;;;;;;6.28;2.85;;;3.20;99.90;;;;;;5017133;28;20737;-64
2020/12/26 05:33:17;;;;;;;1.70;0.20;;;3.10;99.90;;;;;;5015559;28;20241;-65
2020/12/26 05:35:47;;;;;;;1.73;0.20;;;3.20;99.90;;;;;;5016296;28;20182;-65
2020/12/26 05:38:26;;;;;;;8.95;3.05;;;3.10;99.90;;;;;;5022573;28;20178;-64
2020/12/26 05:40:53;;;;;;;5.60;3.67;;;3.10;99.90;;;;;;5023960;28;20202;-64
2020/12/26 05:43:25;;;;;;;2.72;1.42;;;3.00;99.90;;;;;;5033275;28;20186;-69
2020/12/26 05:45:51;;;;;;;5.03;2.28;;;2.90;99.90;;;;;;5033585;28;20198;-65
2020/12/26 05:48:18;;;;;;;3.50;2.00;;;3.00;99.90;;;;;;5034785;28;20206;-65
2020/12/26 05:50:44;;;;;;;1.80;0.57;;;2.90;99.90;;;;;;5035347;28;20457;-64
2020/12/26 05:53:15;;;;;;;1.73;0.40;;;2.90;99.90;;;;;;5031538;28;20194;-65
2020/12/26 05:55:43;;;;;;;1.75;0.20;;;3.00;99.90;;;;;;5033543;28;20189;-64
2020/12/26 05:58:09;;;;;;;15.60;5.95;;;3.00;99.90;;;;;;5043545;28;20193;-64
2020/12/26 06:00:37;;;;;;;10.27;5.88;;;3.00;99.90;;;;;;5035424;28;20233;-64
2020/12/26 06:03:21;;;;;;;1.90;0.57;;;2.90;99.90;;;;;;5034897;28;20199;-64
2020/12/26 06:05:48;;;;;;;1.80;0.30;;;2.90;99.90;;;;;;5031137;28;20230;-64
2020/12/26 06:08:16;;;;;;;1.80;0.40;;;2.90;99.90;;;;;;5026466;28;20301;-64
2020/12/26 06:10:49;;;;;;;4.57;2.30;;;3.00;99.90;;;;;;5026595;28;20605;-64
2020/12/26 06:13:17;;;;;;;5.40;2.05;;;2.90;99.90;;;;;;5021345;28;20186;-64
2020/12/26 06:16:13;;;;;;;1.85;0.47;;;2.80;99.90;;;;;;5015986;28;20262;-64
2020/12/26 06:18:41;;;;;;;1.70;0.20;;;2.90;99.90;;;;;;5004082;28;20950;-65
2020/12/26 06:21:08;;;;;;;19.98;7.32;;;2.80;99.90;;;;;;5016719;28;20297;-64
2020/12/26 06:23:38;;;;;;;13.45;6.20;;;2.80;99.90;;;;;;5011662;28;20190;-64
2020/12/26 06:26:04;;;;;;;1.80;0.30;;;2.70;99.90;;;;;;5014531;28;20190;-64
2020/12/26 06:28:31;;;;;;;2.33;1.10;;;2.80;99.90;;;;;;5016204;28;20221;-64
2020/12/26 06:31:05;;;;;;;6.15;2.85;;;2.80;99.90;;;;;;5013780;28;20276;-64
2020/12/26 06:33:38;;;;;;;4.95;3.13;;;2.80;99.90;;;;;;4999569;28;20187;-64
2020/12/26 06:36:05;;;;;;;2.50;1.27;;;2.70;99.90;;;;;;5021335;28;20182;-64
2020/12/26 06:38:31;;;;;;;2.75;1.73;;;2.60;99.90;;;;;;5013318;28;20197;-64
2020/12/26 06:40:58;;;;;;;1.73;0.20;;;2.60;99.90;;;;;;5014697;28;20222;-64
2020/12/26 06:43:46;;;;;;;39.58;4.00;;;2.60;99.90;;;;;;5016182;28;20179;-64
2020/12/26 06:46:20;;;;;;;1.80;0.30;;;2.70;99.90;;;;;;5017519;28;20194;-65
2020/12/26 06:48:57;;;;;;;6.35;3.00;;;2.60;99.90;;;;;;5014808;28;20189;-64
2020/12/26 06:51:27;;;;;;;2.95;2.65;;;2.70;99.90;;;;;;5010676;28;20685;-64
2020/12/26 06:54:04;;;;;;;1.80;0.20;;;2.60;99.90;;;;;;5017520;28;20243;-64
2020/12/26 06:56:35;;;;;;;3.67;1.55;;;2.70;99.90;;;;;;5012018;28;20544;-64
2020/12/26 06:59:05;;;;;;;2.50;1.52;;;2.60;99.90;;;;;;5011513;28;20191;-64
2020/12/26 07:01:32;;;;;;;1.80;0.30;;;2.60;99.90;;;;;;5013305;28;20207;-64
2020/12/26 07:04:07;;;;;;;4.22;1.98;;;2.60;99.90;;;;;;5013111;28;20187;-64
2020/12/26 07:06:47;;;;;;;8.38;3.22;;;2.60;99.90;;;;;;5018264;28;20239;-65
2020/12/26 07:09:14;;;;;;;1.90;0.50;;;2.60;99.90;;;;;;5028998;28;20222;-65
2020/12/26 07:11:49;;;;;;;8.48;4.35;;;2.60;99.90;;;;;;5023562;28;20717;-64
2020/12/26 07:14:32;;;;;;;1.73;0.20;;;2.70;99.90;;;;;;5025123;28;20182;-65
2020/12/26 07:17:02;;;;;;;4.43;2.20;;;2.80;99.90;;;;;;5023057;28;20186;-65
2020/12/26 07:19:33;;;;;;;1.73;0.20;;;2.80;99.90;;;;;;5018639;28;20624;-65
2020/12/26 07:22:02;;;;;;;2.40;0.45;;;2.80;99.90;;;;;;5024400;28;20178;-64
2020/12/26 07:24:34;;;;;;;1.80;0.40;;;2.80;99.90;;;;;;5020631;28;20661;-65
2020/12/26 07:27:14;;;;;;;12.57;3.70;;;2.80;99.90;;;;;;5016124;28;20232;-64
2020/12/26 07:30:01;;;;;;;2.20;0.50;;;2.70;99.90;;;;;;5016197;28;20554;-64
2020/12/26 07:32:54;;;;;;;1.73;0.20;;;2.80;99.90;;;;;;5012895;28;20253;-64
2020/12/26 07:35:19;;;;;;;1.73;0.20;;;2.80;99.90;;;;;;5010569;28;20194;-64
2020/12/26 07:37:50;;;;;;;3.50;2.23;;;2.90;99.90;;;;;;5013203;28;20236;-64
2020/12/26 07:40:18;;;;;;;8.13;4.03;;;2.80;99.90;;;;;;5013698;28;20803;-64
2020/12/26 07:42:44;;;;;;;1.75;0.20;;;2.80;99.90;;;;;;5013192;28;20325;-64
2020/12/26 07:45:17;;;;;;;1.80;0.30;;;2.80;99.90;;;;;;5013533;28;20206;-64
2020/12/26 07:47:44;;;;;;;12.13;5.90;;;2.80;99.90;;;;;;5015632;28;20565;-64
2020/12/26 07:50:11;;;;;;;4.75;1.60;;;2.70;99.90;;;;;;5013202;28;20198;-64
2020/12/26 07:52:37;;;;;;;1.98;0.70;;;2.70;99.90;;;;;;5011705;28;20210;-65
2020/12/26 07:55:04;;;;;;;1.73;0.27;;;2.80;99.90;;;;;;5019397;28;20240;-66
2020/12/26 07:57:29;;;;;;;7.72;4.72;;;2.90;99.90;;;;;;5014073;28;20190;-64
2020/12/26 07:59:56;;;;;;;4.13;2.53;;;2.90;99.90;;;;;;5017132;28;20709;-65
2020/12/26 08:02:22;;;;;;;5.35;3.65;;;2.90;99.90;;;;;;5019033;28;20198;-64
2020/12/26 08:04:48;;;;;;;4.72;3.35;;;2.80;99.90;;;;;;5019122;28;20201;-64
2020/12/26 08:07:15;;;;;;;2.63;0.60;;;2.90;99.90;;;;;;5018338;28;20210;-64
2020/12/26 08:09:48;;;;;;;6.13;3.95;;;2.90;99.90;;;;;;5026556;28;20273;-65
2020/12/26 08:12:14;;;;;;;8.52;5.20;;;2.90;99.90;;;;;;5017086;28;20183;-64
2020/12/26 08:14:39;;;;;;;1.70;0.20;;;2.90;99.90;;;;;;5020481;28;20209;-64
2020/12/26 08:17:06;;;;;;;3.67;1.77;;;2.90;99.90;;;;;;5022760;28;20225;-64
2020/12/26 08:19:34;;;;;;;6.38;4.00;;;3.00;99.90;;;;;;5016320;28;20219;-64
2020/12/26 08:21:59;;;;;;;1.73;0.20;;;2.90;99.90;;;;;;5023959;28;20550;-64
2020/12/26 08:24:25;;;;;;;2.10;0.70;;;2.90;99.90;;;;;;5020967;28;20202;-64
2020/12/26 08:26:54;;;;;;;1.70;0.20;;;3.00;99.90;;;;;;5017950;28;20229;-68
2020/12/26 08:29:28;;;;;;;13.13;7.10;;;3.10;99.90;;;;;;5011252;28;20186;-68
2020/12/26 08:32:11;;;;;;;4.43;1.83;;;3.10;99.90;;;;;;5009775;28;20637;-65
2020/12/26 08:34:49;;;;;;;4.72;1.48;;;3.00;99.90;;;;;;5012059;28;20661;-71
2020/12/26 08:37:27;;;;;;;1.70;0.20;;;3.00;99.90;;;;;;5015584;28;20213;-69
2020/12/26 08:39:59;;;;;;;1.73;0.20;;;3.10;99.90;;;;;;5015217;28;20198;-70
2020/12/26 08:42:26;;;;;;;1.70;0.20;;;3.10;99.90;;;;;;5014843;28;20463;-71
2020/12/26 08:44:52;;;;;;;1.70;0.20;;;3.20;99.90;;;;;;5010167;28;20209;-69
2020/12/26 08:47:31;;;;;;;2.20;0.63;;;3.10;99.90;;;;;;5015832;28;20211;-69
2020/12/26 08:49:58;;;;;;;1.70;0.20;;;3.10;99.90;;;;;;5014214;28;20218;-71
2020/12/26 08:52:27;;;;;;;1.73;0.20;;;3.00;99.90;;;;;;5015977;28;20190;-70
2020/12/26 08:55:09;;;;;;;2.20;0.75;;;3.00;99.90;;;;;;5013861;28;20187;-69
2020/12/26 08:57:38;;;;;;;3.92;2.15;;;3.00;99.90;;;;;;5012956;28;20258;-71
2020/12/26 09:00:18;;;;;;;2.25;0.77;;;3.00;99.90;;;;;;5011281;28;20203;-71
2020/12/26 09:02:50;;;;;;;1.75;0.20;;;3.00;99.90;;;;;;5008286;28;20240;-71
2020/12/26 09:05:34;;;;;;;4.22;2.15;;;3.00;99.90;;;;;;5013214;28;20195;-71
2020/12/26 09:08:12;;;;;;;1.70;0.20;;;3.10;99.90;;;;;;5009173;28;20210;-71
2020/12/26 09:10:39;;;;;;;1.70;0.20;;;3.10;99.90;;;;;;5014571;28;20206;-71
2020/12/26 09:13:13;;;;;;;5.00;1.88;;;3.10;99.90;;;;;;5012622;28;20185;-71
2020/12/26 09:15:51;;;;;;;4.50;1.27;;;3.10;99.90;;;;;;5014614;28;20209;-71
2020/12/26 09:18:22;;;;;;;1.70;0.20;;;3.10;99.90;;;;;;5014398;28;20194;-70
2020/12/26 09:20:50;;;;;;;1.77;0.20;;;3.10;99.90;;;;;;5013748;28;20225;-70
2020/12/26 09:23:16;;;;;;;1.90;0.45;;;3.10;99.90;;;;;;5017122;28;20186;-70
2020/12/26 09:25:42;;;;;;;1.70;0.20;;;3.10;99.90;;;;;;5017547;28;20741;-70
2020/12/26 09:28:07;;;;;;;1.80;0.30;;;3.10;99.90;;;;;;4995615;28;20811;-70
2020/12/26 09:30:33;;;;;;;5.90;2.43;;;3.10;99.90;;;;;;5012295;28;20689;-69
2020/12/26 09:32:58;;;;;;;2.77;1.37;;;3.10;99.90;;;;;;5016026;28;20179;-70
2020/12/26 09:35:24;;;;;;;1.70;0.20;;;3.10;99.90;;;;;;5015666;28;20183;-69
2020/12/26 09:37:53;;;;;;;1.70;0.20;;;3.10;99.90;;;;;;5016485;28;20569;-68
2020/12/26 09:40:25;;;;;;;7.30;3.05;;;3.10;99.90;;;;;;5014802;28;20209;-68
2020/12/26 09:42:55;;;;;;;4.20;2.50;;;3.20;99.90;;;;;;5014630;28;20952;-68
2020/12/26 09:45:20;;;;;;;1.77;0.30;;;3.10;99.90;;;;;;5020173;28;20191;-69
2020/12/26 09:47:46;;;;;;;1.70;0.20;;;3.20;99.90;;;;;;5012879;28;20222;-69
2020/12/26 09:50:12;;;;;;;1.90;0.50;;;3.30;99.90;;;;;;5013830;28;20233;-68
2020/12/26 09:52:42;;;;;;;6.60;1.70;;;3.30;99.90;;;;;;5014730;28;20185;-68
2020/12/26 09:55:09;;;;;;;1.90;0.50;;;3.40;99.90;;;;;;5012473;28;20175;-68
2020/12/26 09:57:34;;;;;;;3.47;1.92;;;3.40;99.90;;;;;;5018864;28;20198;-68
2020/12/26 10:00:00;;;;;;;2.23;1.33;;;3.40;99.90;;;;;;5011426;28;20685;-69
2020/12/26 10:02:25;;;;;;;14.73;0.93;;;3.40;99.90;;;;;;5016224;28;20218;-69
2020/12/26 10:04:51;;;;;;;6.60;3.07;;;3.50;99.90;;;;;;5015847;28;20194;-69
2020/12/26 10:07:20;;;;;;;3.13;1.50;;;3.50;99.90;;;;;;5015418;28;20214;-69
2020/12/26 10:09:45;;;;;;;3.65;2.17;;;3.60;99.90;;;;;;5013388;28;20681;-70
2020/12/26 10:12:11;;;;;;;3.50;2.00;;;3.60;99.90;;;;;;5015762;28;20182;-70
2020/12/26 10:14:37;;;;;;;1.70;0.20;;;3.50;99.90;;;;;;5014494;28;20179;-70
2020/12/26 10:17:03;;;;;;;4.47;2.80;;;3.50;99.90;;;;;;5015421;28;20198;-69
2020/12/26 10:19:28;;;;;;;1.70;0.20;;;3.50;99.90;;;;;;5013626;28;20755;-70
2020/12/26 10:21:54;;;;;;;2.10;0.50;;;3.50;99.90;;;;;;5012585;28;20187;-69
2020/12/26 10:24:19;;;;;;;6.03;3.70;;;3.50;99.90;;;;;;5015652;28;20240;-70
2020/12/26 10:26:45;;;;;;;3.83;1.13;;;3.50;99.90;;;;;;5013802;28;20691;-70
2020/12/26 10:29:10;;;;;;;6.73;4.57;;;3.50;99.90;;;;;;5017025;28;20272;-70
2020/12/26 10:31:36;;;;;;;5.80;2.50;;;3.50;99.90;;;;;;5022761;28;20197;-70
2020/12/26 10:34:01;;;;;;;3.50;1.23;;;3.50;99.90;;;;;;5027675;28;20211;-70
2020/12/26 10:36:27;;;;;;;1.70;0.20;;;3.50;99.90;;;;;;5026657;28;20187;-71
2020/12/26 10:38:52;;;;;;;3.23;2.10;;;3.60;99.90;;;;;;5029287;28;20185;-70
2020/12/26 10:41:18;;;;;;;1.70;0.20;;;3.60;99.90;;;;;;5027319;28;20522;-70
2020/12/26 10:43:44;;;;;;;7.03;3.23;;;3.60;99.90;;;;;;5020559;28;20198;-69
2020/12/26 10:46:09;;;;;;;1.73;0.30;;;3.70;99.90;;;;;;5013448;28;20249;-70
2020/12/26 10:48:35;;;;;;;1.80;0.30;;;3.70;99.90;;;;;;5017532;28;20206;-70
2020/12/26 10:51:00;;;;;;;12.27;3.33;;;3.70;99.90;;;;;;5011543;28;20274;-70
2020/12/26 10:53:26;;;;;;;1.90;0.63;;;3.80;99.90;;;;;;5012939;28;20179;-69
2020/12/26 10:55:51;;;;;;;1.73;0.20;;;3.70;99.90;;;;;;5001946;28;20198;-70
2020/12/26 10:58:16;;;;;;;1.93;0.40;;;3.80;99.90;;;;;;5013951;28;20194;-70
2020/12/26 11:00:42;;;;;;;6.17;2.53;;;3.80;99.90;;;;;;5013375;28;20241;-70
2020/12/26 11:03:07;;;;;;;1.97;0.83;;;3.80;99.90;;;;;;5013361;28;20237;-70
2020/12/26 11:05:33;;;;;;;4.60;0.73;;;3.80;99.90;;;;;;5009112;28;20206;-70
2020/12/26 11:07:58;;;;;;;2.50;1.43;;;3.90;99.90;;;;;;5008062;28;20325;-71
2020/12/26 11:10:24;;;;;;;1.70;0.20;;;3.90;99.90;;;;;;5013351;28;20236;-71
2020/12/26 11:12:49;;;;;;;3.13;0.97;;;3.90;99.90;;;;;;5013017;28;20312;-71
2020/12/26 11:15:15;;;;;;;5.97;3.77;;;3.90;99.90;;;;;;5016591;28;20569;-70
2020/12/26 11:17:41;;;;;;;4.33;1.63;;;3.90;99.90;;;;;;5013072;28;20646;-70
2020/12/26 11:20:06;;;;;;;2.13;0.93;;;4.00;99.90;;;;;;5012210;28;20931;-70
2020/12/26 11:22:32;;;;;;;2.87;0.97;;;3.90;99.90;;;;;;5010070;28;20183;-70
2020/12/26 11:24:57;;;;;;;8.73;3.43;;;4.00;99.90;;;;;;5010721;28;20198;-70
2020/12/26 11:27:23;;;;;;;2.83;0.90;;;3.90;99.90;;;;;;5011436;28;20696;-70
2020/12/26 11:29:48;;;;;;;4.80;2.77;;;3.90;99.90;;;;;;5015491;28;20257;-69
2020/12/26 11:32:14;;;;;;;2.10;0.53;;;3.90;99.90;;;;;;5012522;28;20701;-69
2020/12/26 11:34:39;;;;;;;1.70;0.20;;;3.90;99.90;;;;;;5023080;28;20265;-69
2020/12/26 11:37:08;;;;;;;1.97;0.50;;;3.90;99.90;;;;;;5016467;28;20182;-69
2020/12/26 11:39:34;;;;;;;3.45;1.33;;;3.90;99.90;;;;;;5014632;28;20218;-70
2020/12/26 11:41:59;;;;;;;1.80;0.40;;;4.00;99.90;;;;;;5014568;28;20213;-72
2020/12/26 11:44:25;;;;;;;1.70;0.20;;;4.10;99.90;;;;;;5016899;28;20370;-71
2020/12/26 11:46:50;;;;;;;5.27;2.83;;;4.10;99.90;;;;;;5013144;28;20206;-70
2020/12/26 11:49:20;;;;;;;1.70;0.20;;;4.10;99.90;;;;;;5041455;23;20220;-59
2020/12/26 11:51:45;;;;;;;5.25;2.53;;;4.00;99.90;;;;;;5038262;28;20656;-59
2020/12/26 11:54:11;;;;;;;1.70;0.20;;;4.00;99.90;;;;;;5037125;28;20197;-59
2020/12/26 11:56:36;;;;;;;2.57;1.33;;;4.00;99.90;;;;;;5015287;28;20226;-59
2020/12/26 11:59:02;;;;;;;6.33;3.47;;;4.00;99.90;;;;;;5034173;28;20248;-61
2020/12/26 12:01:29;;;;;;;1.70;0.20;;;4.00;99.90;;;;;;5032940;28;20185;-58
2020/12/26 12:03:55;;;;;;;3.17;0.40;;;4.00;99.90;;;;;;5034858;28;20187;-58
2020/12/26 12:06:20;;;;;;;1.80;0.20;;;4.10;99.90;;;;;;5035345;28;20189;-58
2020/12/26 12:08:46;;;;;;;7.07;3.53;;;4.10;99.90;;;;;;5036588;28;20209;-62
2020/12/26 12:11:11;;;;;;;1.97;0.83;;;4.20;99.90;;;;;;5030921;28;20228;-60
2020/12/26 12:13:37;;;;;;;6.67;3.43;;;4.10;99.90;;;;;;5034263;28;20182;-60
2020/12/26 12:16:05;;;;;;;4.43;1.00;;;4.10;99.90;;;;;;5028338;28;20182;-60
2020/12/26 12:18:31;;;;;;;1.70;0.20;;;4.20;99.90;;;;;;5037470;28;20451;-58
2020/12/26 12:20:59;;;;;;;1.70;0.20;;;4.20;99.90;;;;;;5050539;28;20167;-60
2020/12/26 12:23:25;;;;;;;3.42;1.17;;;4.20;99.90;;;;;;5038360;28;20189;-60
2020/12/26 12:25:51;;;;;;;1.70;0.20;;;4.10;99.90;;;;;;5028971;28;20179;-59
2020/12/26 12:28:16;;;;;;;2.10;0.60;;;4.20;99.90;;;;;;5037039;28;20209;-60
2020/12/26 12:30:42;;;;;;;1.80;0.20;;;4.20;99.90;;;;;;5034569;28;20233;-60
2020/12/26 12:33:07;;;;;;;2.10;0.63;;;4.30;99.90;;;;;;5036940;28;20189;-60
2020/12/26 12:35:33;;;;;;;1.70;0.20;;;4.30;99.90;;;;;;5035507;28;21631;-60
2020/12/26 12:37:58;;;;;;;10.30;6.23;;;4.30;99.90;;;;;;5034932;28;20249;-60
2020/12/26 12:40:24;;;;;;;3.30;1.60;;;4.20;99.90;;;;;;5037701;28;20221;-60
2020/12/26 12:42:49;;;;;;;1.87;0.37;;;4.20;99.90;;;;;;5036787;28;20272;-60
2020/12/26 12:45:15;;;;;;;1.70;0.20;;;4.20;99.90;;;;;;5039821;28;20544;-59
2020/12/26 12:47:40;;;;;;;3.73;1.57;;;4.30;99.90;;;;;;5034924;28;20214;-60
2020/12/26 12:50:08;;;;;;;3.50;0.93;;;4.40;99.90;;;;;;5021236;28;20222;-60
2020/12/26 12:52:34;;;;;;;1.70;0.20;;;4.40;99.90;;;;;;5037134;28;20201;-60
2020/12/26 12:54:59;;;;;;;1.70;0.20;;;4.50;99.90;;;;;;5032867;28;20178;-59
2020/12/26 12:57:26;;;;;;;2.80;1.30;;;4.40;99.90;;;;;;5035533;28;20216;-59
2020/12/26 12:59:52;;;;;;;1.73;0.20;;;4.30;99.90;;;;;;5035317;28;20234;-59